Terminal Aerodrome Forecast
Issued by NWS

Home | Current Version | Previous Version | Text Only | Print | Product List | Glossary On
Versions: 1 2 3 4 5 6 7 8 9 10 11 12 13 14 15 16 17 18 19 20
000
FTUS44 KLZK 251100
TAFHRO
TAF
KHRO 251130Z 2512/2612 14007KT P6SM FEW020 SCT250
     FM251800 17010KT P6SM SCT035
     FM260200 16005KT P6SM FEW250=

USA.gov is the U.S. government's official web portal to all federal, state and local government web resources and services.